Time;durP1;ratioP1;P1;durP2;ratioP2;P2;SDS_P1;SDS_P2;PMS_P1;PMS_P2;Temp;Humidity;BMP_temperature;BMP_pressure;BME280_temperature;BME280_humidity;BME280_pressure;Samples;Min_cycle;Max_cycle;Signal;HPM_P1;HPM_P2
2023/01/07 00:00:09;;;;;;;12.00;8.57;;;10.80;99.90;;;;;;5032348;28;20034;-82
2023/01/07 00:02:34;;;;;;;9.07;7.70;;;10.80;99.90;;;;;;5014798;28;20383;-82
2023/01/07 00:05:00;;;;;;;9.63;7.45;;;10.80;99.90;;;;;;5022673;28;20025;-84
2023/01/07 00:07:26;;;;;;;7.72;6.45;;;10.80;99.90;;;;;;5052466;28;20033;-83
2023/01/07 00:09:51;;;;;;;9.07;7.22;;;10.80;99.90;;;;;;5035085;28;20040;-84
2023/01/07 00:12:17;;;;;;;10.23;7.90;;;10.80;99.90;;;;;;5034797;28;20021;-84
2023/01/07 00:14:42;;;;;;;11.90;9.27;;;10.70;99.90;;;;;;5052730;28;20036;-85
2023/01/07 00:17:08;;;;;;;11.68;9.38;;;10.70;99.90;;;;;;5052928;28;20100;-85
2023/01/07 00:19:33;;;;;;;11.35;8.38;;;10.70;99.90;;;;;;5052768;28;20036;-83
2023/01/07 00:21:59;;;;;;;13.43;9.23;;;10.70;99.90;;;;;;5052766;28;20048;-83
2023/01/07 00:24:24;;;;;;;9.75;7.78;;;10.60;99.90;;;;;;5034473;28;20025;-84
2023/01/07 00:26:50;;;;;;;13.38;9.35;;;10.60;99.90;;;;;;5052881;28;20045;-85
2023/01/07 00:29:17;;;;;;;11.73;8.90;;;10.60;99.90;;;;;;5025288;28;20365;-85
2023/01/07 00:31:43;;;;;;;11.13;9.13;;;10.50;99.90;;;;;;5044810;28;20048;-85
2023/01/07 00:34:09;;;;;;;11.43;8.48;;;10.50;99.90;;;;;;5035418;28;20025;-82
2023/01/07 00:36:44;;;;;;;10.73;8.10;;;10.40;99.90;;;;;;5032202;28;20048;-83
2023/01/07 00:39:16;;;;;;;9.90;7.75;;;10.40;99.90;;;;;;5034286;28;20114;-84
2023/01/07 00:42:53;;;;;;;9.38;7.18;;;10.40;99.90;;;;;;5052534;28;20416;-84
2023/01/07 00:44:30;;;;;;;9.27;7.47;;;10.30;99.90;;;;;;5051840;28;20033;-82
2023/01/07 00:46:56;;;;;;;8.15;7.00;;;10.30;99.90;;;;;;5052082;28;20025;-84
2023/01/07 00:49:23;;;;;;;9.52;7.43;;;10.30;99.90;;;;;;5052194;28;20486;-83
2023/01/07 00:51:49;;;;;;;9.90;7.35;;;10.30;99.90;;;;;;5034277;28;20029;-83
2023/01/07 00:54:15;;;;;;;8.00;6.70;;;10.30;99.90;;;;;;5034002;28;20036;-82
2023/01/07 00:56:41;;;;;;;8.23;6.57;;;10.30;99.90;;;;;;5034294;28;20025;-83
2023/01/07 00:59:06;;;;;;;10.90;7.90;;;10.30;99.90;;;;;;5051915;28;20056;-84
2023/01/07 01:01:32;;;;;;;11.75;7.97;;;10.40;99.90;;;;;;5051901;28;20076;-83
2023/01/07 01:03:58;;;;;;;9.75;6.95;;;10.30;99.90;;;;;;5051960;28;20468;-82
2023/01/07 01:06:23;;;;;;;9.90;7.47;;;10.40;99.90;;;;;;5051738;28;20032;-84
2023/01/07 01:08:49;;;;;;;13.80;9.52;;;10.40;99.90;;;;;;5051706;28;20368;-84
2023/01/07 01:11:16;;;;;;;11.40;8.77;;;10.30;99.90;;;;;;5034067;28;20128;-84
2023/01/07 01:13:43;;;;;;;11.45;9.23;;;10.40;99.90;;;;;;5047354;28;20020;-85
2023/01/07 01:16:11;;;;;;;12.77;9.88;;;10.40;99.90;;;;;;5034022;28;20074;-83
2023/01/07 01:18:37;;;;;;;12.35;10.23;;;10.40;99.90;;;;;;5051640;28;20471;-84
2023/01/07 01:21:09;;;;;;;11.80;10.15;;;10.40;99.90;;;;;;5033916;28;20136;-83
2023/01/07 01:23:35;;;;;;;14.80;10.68;;;10.50;99.90;;;;;;5033778;28;20463;-84
2023/01/07 01:26:03;;;;;;;14.75;9.68;;;10.40;99.90;;;;;;5051472;28;20029;-83
2023/01/07 01:28:29;;;;;;;12.45;9.48;;;10.50;99.90;;;;;;5051549;28;20021;-83
2023/01/07 01:30:55;;;;;;;13.85;11.00;;;10.50;99.90;;;;;;5051551;28;20024;-84
2023/01/07 01:33:20;;;;;;;13.15;9.65;;;10.50;99.90;;;;;;5033708;28;20491;-82
2023/01/07 01:35:46;;;;;;;12.00;9.25;;;10.60;99.90;;;;;;5033537;28;20052;-83
2023/01/07 01:38:11;;;;;;;14.00;9.88;;;10.60;99.90;;;;;;5039166;28;20091;-84
2023/01/07 01:40:37;;;;;;;12.48;8.95;;;10.60;99.90;;;;;;5033492;28;20044;-84
2023/01/07 01:43:03;;;;;;;12.65;9.18;;;10.60;99.90;;;;;;5051403;28;20017;-85
2023/01/07 01:45:29;;;;;;;11.63;9.13;;;10.60;99.90;;;;;;5033529;28;20021;-84
2023/01/07 01:48:08;;;;;;;11.13;8.98;;;10.60;99.90;;;;;;5033852;28;20132;-83
2023/01/07 01:50:44;;;;;;;12.25;8.38;;;10.60;99.90;;;;;;5033820;28;20021;-85
2023/01/07 01:53:24;;;;;;;9.13;6.82;;;10.60;99.90;;;;;;5033636;28;20135;-84
2023/01/07 01:56:00;;;;;;;9.93;8.15;;;10.70;99.90;;;;;;5051519;28;20028;-84
2023/01/07 01:58:31;;;;;;;8.38;6.90;;;10.70;99.90;;;;;;5051472;28;20025;-84
2023/01/07 02:00:57;;;;;;;10.10;7.28;;;10.60;99.90;;;;;;5033353;28;20033;-84
2023/01/07 02:03:25;;;;;;;9.65;7.97;;;10.60;99.90;;;;;;5033779;28;20025;-85
2023/01/07 02:05:51;;;;;;;10.65;7.60;;;10.70;99.90;;;;;;5051546;28;20032;-85
2023/01/07 02:08:20;;;;;;;12.07;7.68;;;10.70;99.90;;;;;;5033729;28;20021;-86
2023/01/07 02:10:47;;;;;;;10.68;7.47;;;10.60;99.90;;;;;;5050978;28;20014;-86
2023/01/07 02:13:57;;;;;;;9.75;7.32;;;10.60;99.90;;;;;;5032514;28;20418;-86
2023/01/07 02:16:35;;;;;;;10.20;7.25;;;10.60;99.90;;;;;;5024727;28;20022;-86
2023/01/07 02:19:33;;;;;;;8.98;6.82;;;10.50;99.90;;;;;;5031639;28;20028;-85
2023/01/07 02:22:04;;;;;;;10.90;7.85;;;10.60;99.90;;;;;;4980998;28;20095;-84
2023/01/07 02:25:07;;;;;;;10.77;7.63;;;10.60;99.90;;;;;;5014130;28;20029;-85
2023/01/07 02:28:12;;;;;;;10.57;8.45;;;10.60;99.90;;;;;;5039061;28;20024;-85
2023/01/07 02:31:08;;;;;;;9.70;7.70;;;10.60;99.90;;;;;;5042901;28;20017;-83
2023/01/07 02:34:03;;;;;;;9.98;7.05;;;10.60;99.90;;;;;;5042768;28;20028;-84
2023/01/07 02:36:47;;;;;;;8.40;6.53;;;10.60;99.90;;;;;;5051610;28;20037;-85
2023/01/07 02:39:51;;;;;;;10.02;6.55;;;10.60;99.90;;;;;;5042986;28;20059;-85
2023/01/07 02:42:21;;;;;;;8.67;6.60;;;10.60;99.90;;;;;;5043090;28;20021;-85
2023/01/07 02:45:04;;;;;;;10.07;6.80;;;10.50;99.90;;;;;;5051280;28;20071;-83
2023/01/07 02:47:42;;;;;;;8.63;6.03;;;10.50;99.90;;;;;;5051604;28;20076;-85
2023/01/07 02:50:08;;;;;;;9.23;6.13;;;10.50;99.90;;;;;;5041846;28;20043;-85
2023/01/07 02:52:34;;;;;;;10.05;7.35;;;10.50;99.90;;;;;;5044102;28;20049;-84
2023/01/07 02:55:12;;;;;;;9.35;6.82;;;10.50;99.90;;;;;;5053378;28;20013;-84
2023/01/07 02:57:59;;;;;;;13.70;7.53;;;10.50;99.90;;;;;;5054750;28;20490;-84
2023/01/07 03:01:00;;;;;;;8.43;6.63;;;10.50;99.90;;;;;;5054718;28;20124;-84
2023/01/07 03:03:41;;;;;;;9.60;7.15;;;10.40;99.90;;;;;;5053343;28;20035;-86
2023/01/07 03:06:30;;;;;;;11.52;7.50;;;10.50;99.90;;;;;;5053515;28;20029;-85
2023/01/07 03:09:32;;;;;;;8.35;6.68;;;10.50;99.90;;;;;;5054583;28;20483;-84
2023/01/07 03:12:32;;;;;;;8.20;5.35;;;10.40;99.90;;;;;;5053284;28;20071;-86
2023/01/07 03:15:29;;;;;;;9.73;6.95;;;10.40;99.90;;;;;;5054111;28;20087;-85
2023/01/07 03:18:06;;;;;;;8.43;6.95;;;10.40;99.90;;;;;;5053163;28;20608;-84
2023/01/07 03:20:35;;;;;;;7.95;5.88;;;10.30;99.90;;;;;;5052975;28;20044;-83
2023/01/07 03:23:06;;;;;;;8.80;5.85;;;10.30;99.90;;;;;;5054362;28;20025;-84
2023/01/07 03:25:36;;;;;;;7.63;5.38;;;10.30;99.90;;;;;;5053945;28;20482;-84
2023/01/07 03:28:03;;;;;;;9.75;6.70;;;10.20;99.90;;;;;;5053593;28;20074;-85
2023/01/07 03:30:30;;;;;;;7.28;6.00;;;10.20;99.90;;;;;;5053595;28;20029;-84
2023/01/07 03:33:08;;;;;;;8.23;6.05;;;10.20;99.90;;;;;;5054433;28;20029;-84
2023/01/07 03:35:37;;;;;;;9.55;5.90;;;10.20;99.90;;;;;;5053848;28;20522;-85
2023/01/07 03:38:03;;;;;;;8.70;6.15;;;10.20;99.90;;;;;;5074671;28;20012;-84
2023/01/07 03:40:30;;;;;;;9.55;7.13;;;10.20;99.90;;;;;;5055921;28;20047;-84
2023/01/07 03:42:55;;;;;;;8.07;6.07;;;10.20;99.90;;;;;;5074106;28;20111;-84
2023/01/07 03:45:23;;;;;;;7.63;6.05;;;10.20;99.90;;;;;;5073882;28;20051;-83
2023/01/07 03:47:52;;;;;;;10.68;7.60;;;10.20;99.90;;;;;;5055916;28;20391;-84
2023/01/07 03:50:18;;;;;;;10.02;6.45;;;10.20;99.90;;;;;;5056157;28;20073;-84
2023/01/07 03:52:45;;;;;;;8.68;6.00;;;10.20;99.90;;;;;;5056079;28;20012;-84
2023/01/07 03:55:11;;;;;;;9.40;6.20;;;10.20;99.90;;;;;;5055991;28;20021;-84
2023/01/07 03:57:36;;;;;;;9.13;6.07;;;10.10;99.90;;;;;;5073726;28;20382;-84
2023/01/07 04:00:08;;;;;;;9.77;6.20;;;10.10;99.90;;;;;;5055339;28;20016;-85
2023/01/07 04:02:34;;;;;;;7.88;5.35;;;10.10;99.90;;;;;;5055680;28;20032;-85
2023/01/07 04:04:59;;;;;;;7.68;5.38;;;10.10;99.90;;;;;;5055854;28;20016;-85
2023/01/07 04:07:25;;;;;;;7.75;5.78;;;10.00;99.90;;;;;;5055849;28;20119;-85
2023/01/07 04:09:50;;;;;;;6.75;5.28;;;10.00;99.90;;;;;;5073637;28;20025;-85
2023/01/07 04:12:17;;;;;;;6.75;5.50;;;10.00;99.90;;;;;;5055026;28;20024;-83
2023/01/07 04:14:42;;;;;;;7.15;5.22;;;10.00;99.90;;;;;;5055515;28;20574;-85
2023/01/07 04:17:08;;;;;;;6.90;5.32;;;10.00;99.90;;;;;;5055394;28;20123;-84
2023/01/07 04:19:34;;;;;;;8.18;4.93;;;10.00;99.90;;;;;;5073372;28;20425;-84
2023/01/07 04:21:59;;;;;;;8.23;5.38;;;9.90;99.90;;;;;;5073311;28;20394;-84
2023/01/07 04:24:25;;;;;;;10.05;6.07;;;9.90;99.90;;;;;;5055382;28;20135;-84
2023/01/07 04:26:51;;;;;;;9.00;5.18;;;9.90;99.90;;;;;;5073234;28;20433;-84
2023/01/07 04:29:16;;;;;;;7.25;5.72;;;9.90;99.90;;;;;;5073103;28;20025;-84
2023/01/07 04:31:42;;;;;;;7.53;5.38;;;9.90;99.90;;;;;;5054868;28;20043;-82
2023/01/07 04:34:08;;;;;;;9.23;5.68;;;9.90;99.90;;;;;;5072808;28;20470;-84
2023/01/07 04:36:34;;;;;;;6.97;5.38;;;9.90;99.90;;;;;;5072545;28;20123;-85
2023/01/07 04:39:00;;;;;;;5.57;4.53;;;10.00;99.90;;;;;;5055022;28;20446;-85
2023/01/07 04:41:26;;;;;;;8.18;5.40;;;9.90;99.90;;;;;;5054661;28;20119;-84
2023/01/07 04:43:51;;;;;;;7.15;5.40;;;9.90;99.90;;;;;;5072817;28;20056;-84
2023/01/07 04:46:17;;;;;;;6.72;4.88;;;9.90;99.90;;;;;;5072489;28;20096;-85
2023/01/07 04:48:43;;;;;;;6.50;4.75;;;9.90;99.90;;;;;;5072835;28;20052;-85
2023/01/07 04:51:08;;;;;;;7.18;5.05;;;9.90;99.90;;;;;;5054497;28;20033;-85
2023/01/07 04:53:34;;;;;;;7.40;5.57;;;9.90;99.90;;;;;;5054204;28;20108;-85
2023/01/07 04:55:59;;;;;;;9.00;5.13;;;10.00;99.90;;;;;;5072420;28;20493;-84
2023/01/07 04:58:25;;;;;;;7.05;5.13;;;10.00;99.90;;;;;;5071625;28;20339;-84
2023/01/07 05:00:54;;;;;;;6.30;4.72;;;10.00;99.90;;;;;;5054827;28;20033;-85
2023/01/07 05:03:19;;;;;;;5.93;4.50;;;10.00;99.90;;;;;;5054796;28;20024;-84
2023/01/07 05:05:45;;;;;;;7.95;4.78;;;10.00;99.90;;;;;;5072512;28;20115;-86
2023/01/07 05:08:11;;;;;;;6.18;4.72;;;10.00;99.90;;;;;;5054725;28;20021;-85
2023/01/07 05:10:36;;;;;;;8.00;5.20;;;10.00;99.90;;;;;;5072107;28;20486;-85
2023/01/07 05:13:04;;;;;;;6.88;5.13;;;10.10;99.90;;;;;;5072608;28;20103;-85
2023/01/07 05:15:30;;;;;;;6.70;4.50;;;10.00;99.90;;;;;;5072012;28;20024;-85
2023/01/07 05:17:56;;;;;;;7.95;5.00;;;10.00;99.90;;;;;;5054308;28;20016;-85
2023/01/07 05:20:21;;;;;;;5.78;4.53;;;10.10;99.90;;;;;;5072280;28;20387;-86
2023/01/07 05:22:47;;;;;;;8.13;4.38;;;10.00;99.90;;;;;;5054030;28;20111;-84
2023/01/07 05:25:12;;;;;;;7.13;4.32;;;10.10;99.90;;;;;;5072499;28;20078;-85
2023/01/07 05:27:38;;;;;;;5.88;4.00;;;10.10;99.90;;;;;;5054440;28;20063;-85
2023/01/07 05:30:04;;;;;;;5.70;4.32;;;10.10;99.90;;;;;;5054416;28;20210;-85
2023/01/07 05:32:30;;;;;;;7.20;4.35;;;10.10;99.90;;;;;;5054160;28;20063;-84
2023/01/07 05:34:56;;;;;;;7.78;4.68;;;10.10;99.90;;;;;;5071966;28;20055;-84
2023/01/07 05:37:22;;;;;;;5.82;4.40;;;10.10;99.90;;;;;;5072292;28;20038;-85
2023/01/07 05:39:47;;;;;;;6.75;4.22;;;10.10;99.90;;;;;;5054252;28;20031;-85
2023/01/07 05:42:13;;;;;;;6.93;4.55;;;10.10;99.90;;;;;;5054424;28;20056;-85
2023/01/07 05:44:38;;;;;;;6.88;4.30;;;10.10;99.90;;;;;;5071999;28;20475;-84
2023/01/07 05:47:04;;;;;;;6.30;3.92;;;10.20;99.90;;;;;;5054055;28;20069;-84
2023/01/07 05:49:30;;;;;;;7.40;4.32;;;10.20;99.90;;;;;;5054019;28;20013;-85
2023/01/07 05:51:55;;;;;;;6.35;4.07;;;10.20;99.90;;;;;;5071990;28;20024;-84
2023/01/07 05:54:21;;;;;;;8.07;3.92;;;10.30;99.90;;;;;;5053893;28;20031;-84
2023/01/07 05:56:46;;;;;;;8.45;3.70;;;10.30;99.90;;;;;;5072036;28;20478;-84
2023/01/07 05:59:12;;;;;;;5.20;4.10;;;10.30;99.90;;;;;;5059237;28;20103;-83
2023/01/07 06:01:38;;;;;;;6.53;3.95;;;10.20;99.90;;;;;;5051850;28;20498;-84
2023/01/07 06:04:03;;;;;;;6.63;3.75;;;10.30;99.90;;;;;;5036725;28;20021;-83
2023/01/07 06:06:29;;;;;;;7.10;3.92;;;10.30;99.90;;;;;;5037843;28;20517;-84
2023/01/07 06:08:55;;;;;;;7.22;4.00;;;10.30;99.90;;;;;;5038002;28;20028;-84
2023/01/07 06:11:20;;;;;;;5.80;3.78;;;10.30;99.90;;;;;;5055736;28;20537;-84
2023/01/07 06:13:46;;;;;;;5.88;3.53;;;10.30;99.90;;;;;;5038020;28;20033;-85
2023/01/07 06:16:12;;;;;;;5.53;3.78;;;10.30;99.90;;;;;;5055807;28;20017;-84
2023/01/07 06:18:38;;;;;;;5.20;3.65;;;10.30;99.90;;;;;;5055778;28;20497;-84
2023/01/07 06:21:04;;;;;;;6.40;3.80;;;10.30;99.90;;;;;;5038031;28;20127;-84
2023/01/07 06:23:30;;;;;;;5.43;3.60;;;10.30;99.90;;;;;;5055812;28;20087;-85
2023/01/07 06:25:55;;;;;;;5.43;3.50;;;10.30;99.90;;;;;;5037806;28;20060;-85
2023/01/07 06:28:21;;;;;;;5.28;3.28;;;10.40;99.90;;;;;;5037581;28;20059;-84
2023/01/07 06:30:47;;;;;;;7.85;3.60;;;10.40;99.90;;;;;;5055411;28;20031;-85
2023/01/07 06:33:14;;;;;;;4.80;3.30;;;10.40;99.90;;;;;;5055400;28;20509;-85
2023/01/07 06:35:40;;;;;;;6.88;3.15;;;10.40;99.90;;;;;;5037031;28;20021;-84
2023/01/07 06:38:06;;;;;;;5.85;3.50;;;10.40;99.90;;;;;;5037625;28;20081;-84
2023/01/07 06:40:31;;;;;;;6.25;3.55;;;10.40;99.90;;;;;;5037323;28;20033;-83
2023/01/07 06:42:57;;;;;;;4.20;2.83;;;10.40;99.90;;;;;;5037394;28;20020;-85
2023/01/07 06:45:23;;;;;;;4.18;2.72;;;10.40;99.90;;;;;;5055200;28;20037;-85
2023/01/07 06:47:49;;;;;;;7.35;3.15;;;10.40;99.90;;;;;;5055082;28;20032;-82
2023/01/07 06:50:15;;;;;;;6.70;3.42;;;10.40;99.90;;;;;;5037718;28;20017;-85
2023/01/07 06:52:41;;;;;;;3.83;2.38;;;10.50;99.90;;;;;;5037078;28;20063;-85
2023/01/07 06:55:07;;;;;;;3.35;2.67;;;10.40;99.90;;;;;;5037039;28;20094;-85
2023/01/07 06:57:32;;;;;;;5.05;2.65;;;10.50;99.90;;;;;;5054728;28;20100;-84
2023/01/07 06:59:58;;;;;;;3.45;2.45;;;10.50;99.90;;;;;;5036916;28;20033;-84
2023/01/07 07:02:26;;;;;;;4.35;2.70;;;10.50;99.90;;;;;;5054978;28;20040;-85
2023/01/07 07:04:51;;;;;;;5.00;2.47;;;10.50;99.90;;;;;;5054906;28;20383;-85
2023/01/07 07:07:18;;;;;;;3.72;2.25;;;10.50;99.90;;;;;;5055112;28;20040;-85
2023/01/07 07:09:44;;;;;;;3.45;1.90;;;10.50;99.90;;;;;;5037070;28;20036;-85
2023/01/07 07:12:10;;;;;;;4.03;2.20;;;10.50;99.90;;;;;;5055098;28;20391;-85
2023/01/07 07:14:36;;;;;;;5.00;2.20;;;10.50;99.90;;;;;;5036404;28;20025;-85
2023/01/07 07:17:01;;;;;;;3.80;2.13;;;10.50;99.90;;;;;;5054857;28;20024;-85
2023/01/07 07:19:27;;;;;;;4.75;2.28;;;10.50;99.90;;;;;;5054669;28;20063;-86
2023/01/07 07:21:52;;;;;;;3.85;2.00;;;10.50;99.90;;;;;;5054489;28;20064;-85
2023/01/07 07:24:18;;;;;;;4.38;2.08;;;10.50;99.90;;;;;;5054516;28;20048;-85
2023/01/07 07:26:44;;;;;;;3.70;2.30;;;10.50;99.90;;;;;;5054518;28;20471;-86
2023/01/07 07:29:10;;;;;;;3.35;2.17;;;10.50;99.90;;;;;;5036663;28;20128;-86
2023/01/07 07:31:36;;;;;;;3.70;1.90;;;10.50;99.90;;;;;;5036648;28;20067;-85
2023/01/07 07:34:03;;;;;;;5.22;2.40;;;10.50;99.90;;;;;;5036548;28;20012;-86
2023/01/07 07:36:28;;;;;;;3.42;1.60;;;10.50;99.90;;;;;;5054000;28;20045;-85
2023/01/07 07:38:54;;;;;;;3.67;1.85;;;10.50;99.90;;;;;;5054137;28;20064;-84
2023/01/07 07:41:20;;;;;;;3.63;1.77;;;10.50;99.90;;;;;;5053859;28;20538;-86
2023/01/07 07:43:46;;;;;;;4.70;2.33;;;10.50;99.90;;;;;;5054196;28;20021;-85
2023/01/07 07:46:12;;;;;;;4.18;1.90;;;10.50;99.90;;;;;;5053975;28;20031;-84
2023/01/07 07:48:38;;;;;;;2.65;1.67;;;10.50;99.90;;;;;;5036240;28;20084;-85
2023/01/07 07:51:04;;;;;;;3.30;1.80;;;10.50;99.90;;;;;;5036277;28;20029;-85
2023/01/07 07:53:29;;;;;;;4.70;2.17;;;10.50;99.90;;;;;;5035909;28;20124;-84
2023/01/07 07:55:55;;;;;;;3.38;1.58;;;10.60;99.90;;;;;;5035941;28;20029;-84
2023/01/07 07:58:20;;;;;;;3.05;1.73;;;10.50;99.90;;;;;;5035827;28;20032;-84
2023/01/07 08:00:46;;;;;;;3.63;1.92;;;10.50;99.90;;;;;;5035707;28;20124;-85
2023/01/07 08:03:12;;;;;;;2.53;1.63;;;10.50;99.90;;;;;;5053195;28;20025;-82
2023/01/07 08:05:42;;;;;;;3.20;1.77;;;10.50;99.90;;;;;;5035738;28;20436;-83
2023/01/07 08:08:10;;;;;;;3.75;1.88;;;10.50;99.90;;;;;;5053656;28;20018;-84
2023/01/07 08:10:36;;;;;;;2.95;1.77;;;10.60;99.90;;;;;;5051072;28;20033;-83
2023/01/07 08:13:01;;;;;;;2.72;1.60;;;10.50;99.90;;;;;;5050800;28;20036;-84
2023/01/07 08:15:27;;;;;;;2.63;1.40;;;10.60;99.90;;;;;;5046996;28;20024;-83
2023/01/07 08:18:00;;;;;;;2.60;1.55;;;10.60;99.90;;;;;;5052304;28;20426;-84
2023/01/07 08:20:27;;;;;;;2.67;1.75;;;10.60;99.90;;;;;;5052558;28;20036;-83
2023/01/07 08:22:53;;;;;;;2.38;1.45;;;10.60;99.90;;;;;;5052226;28;20116;-83
2023/01/07 08:25:19;;;;;;;3.20;1.50;;;10.50;99.90;;;;;;5051674;28;20107;-83
2023/01/07 08:27:44;;;;;;;2.92;1.50;;;10.50;99.90;;;;;;5051179;28;20480;-84
2023/01/07 08:30:11;;;;;;;3.25;1.63;;;10.50;99.90;;;;;;5070221;28;20100;-84
2023/01/07 08:32:36;;;;;;;2.85;1.60;;;10.50;99.90;;;;;;5069834;28;20115;-83
2023/01/07 08:35:02;;;;;;;3.10;1.42;;;10.60;99.90;;;;;;5070291;28;20128;-83
2023/01/07 08:37:29;;;;;;;3.33;1.60;;;10.60;99.90;;;;;;5051386;28;20068;-84
2023/01/07 08:39:55;;;;;;;3.85;1.40;;;10.60;99.90;;;;;;5069673;28;20549;-84
2023/01/07 08:42:20;;;;;;;4.28;1.77;;;10.70;99.90;;;;;;5051957;28;20135;-85
2023/01/07 08:44:46;;;;;;;2.38;1.38;;;10.70;99.90;;;;;;5052187;28;20024;-85
2023/01/07 08:47:11;;;;;;;3.05;1.70;;;10.70;99.90;;;;;;5070208;28;20024;-86
2023/01/07 08:49:37;;;;;;;5.32;1.70;;;10.70;99.90;;;;;;5069716;28;20060;-85
2023/01/07 08:52:03;;;;;;;2.03;1.25;;;10.70;99.90;;;;;;5069874;28;20071;-84
2023/01/07 08:54:28;;;;;;;4.05;1.38;;;10.70;99.90;;;;;;5048596;28;20033;-84
2023/01/07 08:56:54;;;;;;;3.35;1.60;;;10.80;99.90;;;;;;5034689;28;20036;-84
2023/01/07 08:59:19;;;;;;;1.80;1.20;;;10.80;99.90;;;;;;5049847;28;20095;-84
2023/01/07 09:01:45;;;;;;;1.92;1.45;;;10.80;99.90;;;;;;5031530;28;20105;-85
2023/01/07 09:04:11;;;;;;;2.72;1.55;;;10.90;99.90;;;;;;5050122;28;20100;-83
2023/01/07 09:06:36;;;;;;;2.55;1.17;;;10.90;99.90;;;;;;5049650;28;20394;-84
2023/01/07 09:09:02;;;;;;;2.47;1.38;;;10.90;99.90;;;;;;5049804;28;20089;-83
2023/01/07 09:11:28;;;;;;;3.15;1.42;;;11.00;99.90;;;;;;5031497;28;20102;-85
2023/01/07 09:13:53;;;;;;;2.28;1.20;;;11.00;99.90;;;;;;5031241;28;20040;-85
2023/01/07 09:16:19;;;;;;;3.50;1.70;;;11.00;99.90;;;;;;5049095;28;20055;-84
2023/01/07 09:18:44;;;;;;;1.88;1.35;;;11.00;99.90;;;;;;5032949;28;20072;-84
2023/01/07 09:21:10;;;;;;;2.72;1.20;;;11.00;99.90;;;;;;5051275;28;20632;-86
2023/01/07 09:23:35;;;;;;;2.83;1.25;;;11.10;99.90;;;;;;5051410;28;20060;-84
2023/01/07 09:26:01;;;;;;;3.13;1.85;;;11.10;99.90;;;;;;5032760;28;20486;-84
2023/01/07 09:28:27;;;;;;;2.97;1.40;;;11.10;99.90;;;;;;5032078;28;20029;-84
2023/01/07 09:30:53;;;;;;;2.42;1.60;;;11.10;99.90;;;;;;5031980;28;20032;-84
2023/01/07 09:33:19;;;;;;;1.73;1.23;;;11.10;99.90;;;;;;5031981;28;20051;-82
2023/01/07 09:35:44;;;;;;;2.22;1.42;;;11.10;99.90;;;;;;5031842;28;20037;-84
2023/01/07 09:38:10;;;;;;;3.35;1.48;;;11.10;99.90;;;;;;5050339;28;20021;-84
2023/01/07 09:40:40;;;;;;;2.78;1.52;;;11.10;99.90;;;;;;5031659;28;20542;-84
2023/01/07 09:43:28;;;;;;;3.15;1.48;;;11.10;99.90;;;;;;5049670;28;20033;-86
2023/01/07 09:45:57;;;;;;;2.00;1.40;;;11.10;99.90;;;;;;5032054;28;20040;-83
2023/01/07 09:48:30;;;;;;;2.60;1.40;;;11.10;99.90;;;;;;5050148;28;20031;-83
2023/01/07 09:51:01;;;;;;;2.58;1.38;;;11.20;99.90;;;;;;5031655;28;20025;-84
2023/01/07 09:53:32;;;;;;;2.03;1.38;;;11.20;99.90;;;;;;5049614;28;20087;-85
2023/01/07 09:55:59;;;;;;;2.88;1.40;;;11.20;99.90;;;;;;5033299;28;20474;-84
2023/01/07 09:58:25;;;;;;;3.05;1.50;;;11.30;99.90;;;;;;5033839;28;20021;-83
2023/01/07 10:00:54;;;;;;;3.15;1.58;;;11.30;99.90;;;;;;5051528;28;20047;-86
2023/01/07 10:04:01;;;;;;;4.20;2.00;;;11.30;99.90;;;;;;5051777;28;20021;-86
2023/01/07 10:06:57;;;;;;;2.58;1.50;;;11.40;99.90;;;;;;4984817;28;20061;-83
2023/01/07 10:09:41;;;;;;;3.25;1.75;;;11.40;99.90;;;;;;5049131;28;20072;-85
2023/01/07 10:12:34;;;;;;;4.38;2.20;;;11.40;99.90;;;;;;5048700;28;20035;-84
2023/01/07 10:15:24;;;;;;;2.88;1.83;;;11.40;99.90;;;;;;5031253;28;20072;-84
2023/01/07 10:18:13;;;;;;;2.83;1.50;;;11.50;99.90;;;;;;5049414;28;20025;-84
2023/01/07 10:21:00;;;;;;;2.55;1.20;;;11.50;99.90;;;;;;5031371;28;20135;-88
2023/01/07 10:23:31;;;;;;;2.13;1.60;;;11.50;99.90;;;;;;5031205;28;20036;-87
2023/01/07 10:25:58;;;;;;;2.00;1.25;;;11.50;99.90;;;;;;5034304;28;20037;-85
2023/01/07 10:28:47;;;;;;;2.42;1.65;;;11.50;99.90;;;;;;5034731;28;20045;-89
2023/01/07 10:31:23;;;;;;;2.80;1.60;;;11.50;99.90;;;;;;5032593;28;20033;-85
2023/01/07 10:33:50;;;;;;;3.20;1.58;;;11.50;99.90;;;;;;5035996;28;20536;-85
2023/01/07 10:36:27;;;;;;;2.58;1.48;;;11.50;99.90;;;;;;5037489;28;20102;-86
2023/01/07 10:39:20;;;;;;;2.08;1.38;;;11.60;99.90;;;;;;5036712;28;20040;-87
2023/01/07 10:42:04;;;;;;;2.00;1.50;;;11.60;99.90;;;;;;5048548;28;20041;-85
2023/01/07 10:44:41;;;;;;;1.98;1.23;;;11.70;99.90;;;;;;5048667;28;20036;-86
2023/01/07 10:47:16;;;;;;;2.42;1.38;;;12.00;99.90;;;;;;5050706;28;20035;-84
2023/01/07 10:50:10;;;;;;;2.13;1.27;;;13.10;99.90;;;;;;5051365;28;20045;-83
2023/01/07 10:53:02;;;;;;;3.15;1.30;;;14.30;99.90;;;;;;5056086;28;20021;-84
2023/01/07 10:55:34;;;;;;;1.25;1.00;;;15.00;99.90;;;;;;5073428;28;20042;-84
2023/01/07 10:58:01;;;;;;;2.15;1.00;;;15.60;99.90;;;;;;5055129;28;20035;-84
2023/01/07 11:00:27;;;;;;;1.40;0.90;;;16.00;99.90;;;;;;5072397;28;20533;-85
2023/01/07 11:02:56;;;;;;;1.52;0.80;;;16.40;99.90;;;;;;5072689;28;20103;-84
2023/01/07 11:05:27;;;;;;;2.40;1.25;;;16.60;99.90;;;;;;5054643;28;20031;-86
2023/01/07 11:07:57;;;;;;;3.40;1.00;;;16.50;99.90;;;;;;5054407;28;20024;-84
2023/01/07 11:10:27;;;;;;;1.33;0.90;;;16.50;99.90;;;;;;5054054;28;20063;-86
2023/01/07 11:12:55;;;;;;;2.33;0.80;;;16.70;99.90;;;;;;5053702;28;20024;-84
2023/01/07 11:15:41;;;;;;;1.40;0.77;;;16.90;99.90;;;;;;5053627;28;20020;-86
2023/01/07 11:18:20;;;;;;;1.63;0.80;;;17.10;99.90;;;;;;5072035;28;20118;-86
2023/01/07 11:20:50;;;;;;;1.25;0.70;;;17.30;99.90;;;;;;5054106;28;20608;-85
2023/01/07 11:23:38;;;;;;;1.63;0.80;;;17.40;99.90;;;;;;5053295;28;20020;-85
2023/01/07 11:26:22;;;;;;;2.15;0.80;;;17.30;99.90;;;;;;5071903;28;20490;-84
2023/01/07 11:28:49;;;;;;;1.67;0.90;;;16.90;99.90;;;;;;5072146;28;20030;-84
2023/01/07 11:31:16;;;;;;;1.33;0.70;;;16.60;99.90;;;;;;5054107;28;20029;-84
2023/01/07 11:33:49;;;;;;;1.83;0.90;;;16.50;99.90;;;;;;5054167;28;20036;-88
2023/01/07 11:36:15;;;;;;;2.50;1.00;;;16.40;99.90;;;;;;5042129;28;20044;-84
2023/01/07 11:38:41;;;;;;;3.28;0.60;;;16.40;99.90;;;;;;5049703;28;20029;-84
2023/01/07 11:41:19;;;;;;;1.20;0.75;;;16.40;99.90;;;;;;5050190;28;20376;-83
2023/01/07 11:43:51;;;;;;;1.40;0.70;;;16.50;99.90;;;;;;5051146;28;20056;-86
2023/01/07 11:46:17;;;;;;;1.70;0.70;;;16.40;99.90;;;;;;5031483;28;20025;-85
2023/01/07 11:48:59;;;;;;;1.92;1.15;;;16.40;99.90;;;;;;5032916;28;20425;-84
2023/01/07 11:51:25;;;;;;;1.50;0.90;;;16.20;99.90;;;;;;5030109;28;20489;-84
2023/01/07 11:53:51;;;;;;;1.05;0.75;;;16.00;99.90;;;;;;5033536;28;20074;-84
2023/01/07 11:56:20;;;;;;;3.08;0.90;;;15.70;99.90;;;;;;5032771;28;20037;-83
2023/01/07 11:58:48;;;;;;;2.15;1.05;;;15.30;99.90;;;;;;5050617;28;20021;-84
2023/01/07 12:01:18;;;;;;;1.55;0.80;;;14.90;99.90;;;;;;5032171;28;20106;-83
2023/01/07 12:04:07;;;;;;;2.03;1.00;;;14.60;99.90;;;;;;5032486;28;20028;-84
2023/01/07 12:06:37;;;;;;;2.60;0.90;;;14.30;99.90;;;;;;5050209;28;20040;-83
2023/01/07 12:09:23;;;;;;;3.45;1.00;;;14.10;99.90;;;;;;5050202;28;20110;-84
2023/01/07 12:11:50;;;;;;;1.65;1.00;;;14.00;99.90;;;;;;5026599;28;20037;-84
2023/01/07 12:14:23;;;;;;;2.17;0.90;;;13.80;99.90;;;;;;5037466;28;20021;-84
2023/01/07 12:16:50;;;;;;;4.50;0.98;;;13.70;99.90;;;;;;5051965;28;20159;-85
2023/01/07 12:19:38;;;;;;;1.67;1.00;;;13.60;99.90;;;;;;5035041;28;20021;-86
2023/01/07 12:22:35;;;;;;;3.40;1.20;;;13.40;99.90;;;;;;5013306;28;20041;-83
2023/01/07 12:25:06;;;;;;;2.25;1.00;;;13.40;99.90;;;;;;5037592;28;20415;-85
2023/01/07 12:28:11;;;;;;;2.78;1.27;;;13.30;99.90;;;;;;5021984;28;20438;-82
2023/01/07 12:30:58;;;;;;;2.15;1.40;;;13.20;99.90;;;;;;5027281;28;20498;-81
2023/01/07 12:33:46;;;;;;;1.65;1.02;;;13.10;99.90;;;;;;5028373;28;20061;-81
2023/01/07 12:36:26;;;;;;;1.83;1.10;;;13.10;99.90;;;;;;5018582;28;20040;-82
2023/01/07 12:38:57;;;;;;;2.55;1.00;;;13.10;99.90;;;;;;5056070;28;20075;-82
2023/01/07 12:41:38;;;;;;;1.50;1.00;;;13.00;99.90;;;;;;5048438;28;20045;-83
2023/01/07 12:44:20;;;;;;;1.95;1.10;;;13.10;99.90;;;;;;5031162;28;20580;-84
2023/01/07 12:47:06;;;;;;;1.83;1.10;;;13.10;99.90;;;;;;5044681;28;20480;-83
2023/01/07 12:49:47;;;;;;;2.22;1.30;;;13.00;99.90;;;;;;5034008;28;20060;-82
2023/01/07 12:52:59;;;;;;;1.60;1.10;;;13.00;99.90;;;;;;5048709;28;20675;-84
2023/01/07 12:55:42;;;;;;;2.63;1.27;;;13.00;99.90;;;;;;4984758;28;20033;-81
2023/01/07 12:58:52;;;;;;;2.03;1.15;;;12.90;99.90;;;;;;5046166;28;20040;-83
2023/01/07 13:01:53;;;;;;;2.53;1.55;;;13.00;99.90;;;;;;5022230;28;20045;-82
2023/01/07 13:04:34;;;;;;;3.25;1.50;;;13.00;99.90;;;;;;4947798;29;20109;-83